sensor_id;sensor_type;location;lat;lon;timestamp;P1;durP1;ratioP1;P2;durP2;ratioP2
8708;SDS011;4391;48.678;9.280;2024-02-16T00:00:23;11.55;;;5.10;;
8708;SDS011;4391;48.678;9.280;2024-02-16T00:02:50;8.50;;;4.72;;
8708;SDS011;4391;48.678;9.280;2024-02-16T00:05:18;8.73;;;4.50;;
8708;SDS011;4391;48.678;9.280;2024-02-16T00:07:47;9.67;;;4.73;;
8708;SDS011;4391;48.678;9.280;2024-02-16T00:10:13;9.38;;;4.55;;
8708;SDS011;4391;48.678;9.280;2024-02-16T00:12:43;9.40;;;4.45;;
8708;SDS011;4391;48.678;9.280;2024-02-16T00:15:10;7.70;;;4.22;;
8708;SDS011;4391;48.678;9.280;2024-02-16T00:17:37;9.98;;;3.83;;
8708;SDS011;4391;48.678;9.280;2024-02-16T00:20:05;8.23;;;4.10;;
8708;SDS011;4391;48.678;9.280;2024-02-16T00:22:33;9.20;;;3.78;;
8708;SDS011;4391;48.678;9.280;2024-02-16T00:25:01;12.13;;;4.20;;
8708;SDS011;4391;48.678;9.280;2024-02-16T00:27:28;8.25;;;3.83;;
8708;SDS011;4391;48.678;9.280;2024-02-16T00:29:55;6.63;;;3.38;;
8708;SDS011;4391;48.678;9.280;2024-02-16T00:32:22;7.23;;;2.93;;
8708;SDS011;4391;48.678;9.280;2024-02-16T00:34:49;7.03;;;3.50;;
8708;SDS011;4391;48.678;9.280;2024-02-16T00:37:18;8.20;;;4.13;;
8708;SDS011;4391;48.678;9.280;2024-02-16T00:39:46;9.73;;;3.70;;
8708;SDS011;4391;48.678;9.280;2024-02-16T00:42:14;6.00;;;2.88;;
8708;SDS011;4391;48.678;9.280;2024-02-16T00:44:41;6.73;;;3.17;;
8708;SDS011;4391;48.678;9.280;2024-02-16T00:47:08;7.57;;;3.22;;
8708;SDS011;4391;48.678;9.280;2024-02-16T00:49:35;10.07;;;3.40;;
8708;SDS011;4391;48.678;9.280;2024-02-16T00:52:02;12.38;;;3.75;;
8708;SDS011;4391;48.678;9.280;2024-02-16T00:54:30;6.40;;;3.00;;
8708;SDS011;4391;48.678;9.280;2024-02-16T00:56:56;7.27;;;3.13;;
8708;SDS011;4391;48.678;9.280;2024-02-16T00:59:28;7.13;;;3.40;;
8708;SDS011;4391;48.678;9.280;2024-02-16T01:01:55;6.72;;;3.03;;
8708;SDS011;4391;48.678;9.280;2024-02-16T01:04:22;7.40;;;3.22;;
8708;SDS011;4391;48.678;9.280;2024-02-16T01:06:49;9.48;;;4.15;;
8708;SDS011;4391;48.678;9.280;2024-02-16T01:09:16;9.93;;;4.47;;
8708;SDS011;4391;48.678;9.280;2024-02-16T01:11:43;9.00;;;3.53;;
8708;SDS011;4391;48.678;9.280;2024-02-16T01:14:10;10.60;;;4.15;;
8708;SDS011;4391;48.678;9.280;2024-02-16T01:16:38;10.27;;;4.80;;
8708;SDS011;4391;48.678;9.280;2024-02-16T01:19:05;11.52;;;4.40;;
8708;SDS011;4391;48.678;9.280;2024-02-16T01:21:32;8.07;;;3.93;;
8708;SDS011;4391;48.678;9.280;2024-02-16T01:23:59;8.18;;;3.72;;
8708;SDS011;4391;48.678;9.280;2024-02-16T01:26:26;7.50;;;4.18;;
8708;SDS011;4391;48.678;9.280;2024-02-16T01:28:53;11.73;;;4.60;;
8708;SDS011;4391;48.678;9.280;2024-02-16T01:31:20;9.00;;;4.43;;
8708;SDS011;4391;48.678;9.280;2024-02-16T01:33:48;15.30;;;5.27;;
8708;SDS011;4391;48.678;9.280;2024-02-16T01:36:15;11.82;;;5.07;;
8708;SDS011;4391;48.678;9.280;2024-02-16T01:38:42;10.50;;;4.82;;
8708;SDS011;4391;48.678;9.280;2024-02-16T01:41:08;10.82;;;5.18;;
8708;SDS011;4391;48.678;9.280;2024-02-16T01:43:36;12.02;;;5.38;;
8708;SDS011;4391;48.678;9.280;2024-02-16T01:46:03;9.67;;;4.97;;
8708;SDS011;4391;48.678;9.280;2024-02-16T01:48:30;11.82;;;4.85;;
8708;SDS011;4391;48.678;9.280;2024-02-16T01:50:58;10.60;;;4.40;;
8708;SDS011;4391;48.678;9.280;2024-02-16T01:53:27;11.50;;;4.78;;
8708;SDS011;4391;48.678;9.280;2024-02-16T01:55:54;9.40;;;4.30;;
8708;SDS011;4391;48.678;9.280;2024-02-16T01:58:22;9.53;;;4.43;;
8708;SDS011;4391;48.678;9.280;2024-02-16T02:00:49;8.75;;;4.20;;
8708;SDS011;4391;48.678;9.280;2024-02-16T02:03:15;10.63;;;4.20;;
8708;SDS011;4391;48.678;9.280;2024-02-16T02:05:43;11.25;;;3.95;;
8708;SDS011;4391;48.678;9.280;2024-02-16T02:08:13;11.10;;;4.40;;
8708;SDS011;4391;48.678;9.280;2024-02-16T02:10:40;7.47;;;4.23;;
8708;SDS011;4391;48.678;9.280;2024-02-16T02:13:07;10.45;;;4.60;;
8708;SDS011;4391;48.678;9.280;2024-02-16T02:15:33;11.48;;;4.53;;
8708;SDS011;4391;48.678;9.280;2024-02-16T02:18:00;8.07;;;3.60;;
8708;SDS011;4391;48.678;9.280;2024-02-16T02:20:27;10.30;;;4.40;;
8708;SDS011;4391;48.678;9.280;2024-02-16T02:22:55;9.20;;;4.20;;
8708;SDS011;4391;48.678;9.280;2024-02-16T02:25:23;8.93;;;4.40;;
8708;SDS011;4391;48.678;9.280;2024-02-16T02:27:51;8.23;;;3.85;;
8708;SDS011;4391;48.678;9.280;2024-02-16T02:30:18;12.18;;;4.28;;
8708;SDS011;4391;48.678;9.280;2024-02-16T02:32:46;7.63;;;3.90;;
8708;SDS011;4391;48.678;9.280;2024-02-16T02:35:14;9.20;;;4.17;;
8708;SDS011;4391;48.678;9.280;2024-02-16T02:37:42;8.93;;;3.85;;
8708;SDS011;4391;48.678;9.280;2024-02-16T02:40:11;10.95;;;4.35;;
8708;SDS011;4391;48.678;9.280;2024-02-16T02:42:38;8.18;;;3.55;;
8708;SDS011;4391;48.678;9.280;2024-02-16T02:45:05;9.30;;;3.75;;
8708;SDS011;4391;48.678;9.280;2024-02-16T02:47:33;7.00;;;3.37;;
8708;SDS011;4391;48.678;9.280;2024-02-16T02:49:59;9.05;;;3.65;;
8708;SDS011;4391;48.678;9.280;2024-02-16T02:52:26;6.82;;;3.60;;
8708;SDS011;4391;48.678;9.280;2024-02-16T02:54:53;10.00;;;3.38;;
8708;SDS011;4391;48.678;9.280;2024-02-16T02:57:21;7.78;;;3.67;;
8708;SDS011;4391;48.678;9.280;2024-02-16T02:59:48;10.37;;;3.57;;
8708;SDS011;4391;48.678;9.280;2024-02-16T03:02:15;8.77;;;3.78;;
8708;SDS011;4391;48.678;9.280;2024-02-16T03:04:42;8.77;;;3.75;;
8708;SDS011;4391;48.678;9.280;2024-02-16T03:07:08;11.60;;;4.68;;
8708;SDS011;4391;48.678;9.280;2024-02-16T03:09:35;9.52;;;3.22;;
8708;SDS011;4391;48.678;9.280;2024-02-16T03:12:03;8.73;;;3.70;;
8708;SDS011;4391;48.678;9.280;2024-02-16T03:14:32;7.25;;;3.40;;
8708;SDS011;4391;48.678;9.280;2024-02-16T03:16:59;11.82;;;3.47;;
8708;SDS011;4391;48.678;9.280;2024-02-16T03:19:25;7.78;;;3.75;;
8708;SDS011;4391;48.678;9.280;2024-02-16T03:21:52;10.13;;;3.58;;
8708;SDS011;4391;48.678;9.280;2024-02-16T03:24:19;8.00;;;3.60;;
8708;SDS011;4391;48.678;9.280;2024-02-16T03:26:47;10.55;;;3.83;;
8708;SDS011;4391;48.678;9.280;2024-02-16T03:29:14;7.80;;;4.10;;
8708;SDS011;4391;48.678;9.280;2024-02-16T03:31:42;7.22;;;3.83;;
8708;SDS011;4391;48.678;9.280;2024-02-16T03:34:09;8.95;;;3.50;;
8708;SDS011;4391;48.678;9.280;2024-02-16T03:36:35;9.00;;;3.93;;
8708;SDS011;4391;48.678;9.280;2024-02-16T03:39:02;7.47;;;3.92;;
8708;SDS011;4391;48.678;9.280;2024-02-16T03:41:29;8.18;;;3.85;;
8708;SDS011;4391;48.678;9.280;2024-02-16T03:43:56;10.82;;;4.15;;
8708;SDS011;4391;48.678;9.280;2024-02-16T03:46:23;9.23;;;3.95;;
8708;SDS011;4391;48.678;9.280;2024-02-16T03:48:51;8.97;;;4.30;;
8708;SDS011;4391;48.678;9.280;2024-02-16T03:51:18;8.13;;;3.83;;
8708;SDS011;4391;48.678;9.280;2024-02-16T03:53:45;8.68;;;4.18;;
8708;SDS011;4391;48.678;9.280;2024-02-16T03:56:17;8.40;;;3.72;;
8708;SDS011;4391;48.678;9.280;2024-02-16T03:58:46;10.65;;;4.20;;
8708;SDS011;4391;48.678;9.280;2024-02-16T04:01:12;7.57;;;4.20;;
8708;SDS011;4391;48.678;9.280;2024-02-16T04:03:39;10.50;;;3.90;;
8708;SDS011;4391;48.678;9.280;2024-02-16T04:06:08;7.80;;;3.83;;
8708;SDS011;4391;48.678;9.280;2024-02-16T04:08:35;10.43;;;4.13;;
8708;SDS011;4391;48.678;9.280;2024-02-16T04:11:02;8.70;;;4.30;;
8708;SDS011;4391;48.678;9.280;2024-02-16T04:13:29;9.23;;;4.03;;
8708;SDS011;4391;48.678;9.280;2024-02-16T04:15:57;7.40;;;3.80;;
8708;SDS011;4391;48.678;9.280;2024-02-16T04:18:24;8.55;;;4.10;;
8708;SDS011;4391;48.678;9.280;2024-02-16T04:20:51;8.75;;;4.07;;
8708;SDS011;4391;48.678;9.280;2024-02-16T04:23:19;9.85;;;4.80;;
8708;SDS011;4391;48.678;9.280;2024-02-16T04:25:46;10.10;;;4.80;;
8708;SDS011;4391;48.678;9.280;2024-02-16T04:28:13;10.13;;;4.60;;
8708;SDS011;4391;48.678;9.280;2024-02-16T04:30:40;9.27;;;4.38;;
8708;SDS011;4391;48.678;9.280;2024-02-16T04:33:07;10.18;;;4.70;;
8708;SDS011;4391;48.678;9.280;2024-02-16T04:35:34;11.45;;;4.82;;
8708;SDS011;4391;48.678;9.280;2024-02-16T04:38:01;10.73;;;5.30;;
8708;SDS011;4391;48.678;9.280;2024-02-16T04:40:29;9.70;;;4.95;;
8708;SDS011;4391;48.678;9.280;2024-02-16T04:43:02;8.50;;;4.53;;
8708;SDS011;4391;48.678;9.280;2024-02-16T04:45:29;9.07;;;4.30;;
8708;SDS011;4391;48.678;9.280;2024-02-16T04:47:56;10.73;;;4.75;;
8708;SDS011;4391;48.678;9.280;2024-02-16T04:52:52;15.13;;;4.07;;
8708;SDS011;4391;48.678;9.280;2024-02-16T04:55:18;8.52;;;4.47;;
8708;SDS011;4391;48.678;9.280;2024-02-16T04:57:47;10.65;;;4.75;;
8708;SDS011;4391;48.678;9.280;2024-02-16T05:00:14;8.52;;;4.72;;
8708;SDS011;4391;48.678;9.280;2024-02-16T05:02:41;8.97;;;4.13;;
8708;SDS011;4391;48.678;9.280;2024-02-16T05:05:08;9.27;;;4.20;;
8708;SDS011;4391;48.678;9.280;2024-02-16T05:07:35;7.85;;;3.65;;
8708;SDS011;4391;48.678;9.280;2024-02-16T05:10:02;9.85;;;4.40;;
8708;SDS011;4391;48.678;9.280;2024-02-16T05:12:29;8.82;;;3.88;;
8708;SDS011;4391;48.678;9.280;2024-02-16T05:14:57;8.77;;;4.30;;
8708;SDS011;4391;48.678;9.280;2024-02-16T05:17:24;8.18;;;3.20;;
8708;SDS011;4391;48.678;9.280;2024-02-16T05:19:54;10.23;;;3.88;;
8708;SDS011;4391;48.678;9.280;2024-02-16T05:22:21;8.48;;;4.20;;
8708;SDS011;4391;48.678;9.280;2024-02-16T05:24:48;10.32;;;4.63;;
8708;SDS011;4391;48.678;9.280;2024-02-16T05:27:15;8.10;;;4.10;;
8708;SDS011;4391;48.678;9.280;2024-02-16T05:29:41;7.85;;;3.42;;
8708;SDS011;4391;48.678;9.280;2024-02-16T05:32:10;8.45;;;3.70;;
8708;SDS011;4391;48.678;9.280;2024-02-16T05:34:37;8.57;;;4.15;;
8708;SDS011;4391;48.678;9.280;2024-02-16T05:37:04;7.80;;;4.13;;
8708;SDS011;4391;48.678;9.280;2024-02-16T05:39:32;8.00;;;4.13;;
8708;SDS011;4391;48.678;9.280;2024-02-16T05:42:01;11.48;;;4.18;;
8708;SDS011;4391;48.678;9.280;2024-02-16T05:44:29;8.48;;;3.70;;
8708;SDS011;4391;48.678;9.280;2024-02-16T05:46:57;9.00;;;4.07;;
8708;SDS011;4391;48.678;9.280;2024-02-16T05:49:26;10.10;;;4.40;;
8708;SDS011;4391;48.678;9.280;2024-02-16T05:51:53;9.67;;;3.97;;
8708;SDS011;4391;48.678;9.280;2024-02-16T05:54:37;9.38;;;4.07;;
8708;SDS011;4391;48.678;9.280;2024-02-16T05:57:05;8.05;;;4.25;;
8708;SDS011;4391;48.678;9.280;2024-02-16T05:59:34;10.35;;;4.50;;
8708;SDS011;4391;48.678;9.280;2024-02-16T06:02:01;8.68;;;4.05;;
8708;SDS011;4391;48.678;9.280;2024-02-16T06:04:29;9.30;;;4.20;;
8708;SDS011;4391;48.678;9.280;2024-02-16T06:06:56;15.68;;;4.10;;
8708;SDS011;4391;48.678;9.280;2024-02-16T06:09:23;8.70;;;4.10;;
8708;SDS011;4391;48.678;9.280;2024-02-16T06:11:49;9.07;;;4.20;;
8708;SDS011;4391;48.678;9.280;2024-02-16T06:14:16;8.77;;;3.85;;
8708;SDS011;4391;48.678;9.280;2024-02-16T06:16:44;8.40;;;3.83;;
8708;SDS011;4391;48.678;9.280;2024-02-16T06:19:12;8.60;;;3.88;;
8708;SDS011;4391;48.678;9.280;2024-02-16T06:21:40;12.10;;;4.30;;
8708;SDS011;4391;48.678;9.280;2024-02-16T06:24:07;10.15;;;4.70;;
8708;SDS011;4391;48.678;9.280;2024-02-16T06:26:33;9.40;;;4.45;;
8708;SDS011;4391;48.678;9.280;2024-02-16T06:29:00;9.67;;;4.43;;
8708;SDS011;4391;48.678;9.280;2024-02-16T06:31:28;8.27;;;3.80;;
8708;SDS011;4391;48.678;9.280;2024-02-16T06:36:22;8.00;;;3.92;;
8708;SDS011;4391;48.678;9.280;2024-02-16T06:38:51;8.05;;;3.72;;
8708;SDS011;4391;48.678;9.280;2024-02-16T06:41:17;9.07;;;3.90;;
8708;SDS011;4391;48.678;9.280;2024-02-16T06:43:44;7.78;;;3.83;;
8708;SDS011;4391;48.678;9.280;2024-02-16T06:46:11;12.63;;;3.92;;
8708;SDS011;4391;48.678;9.280;2024-02-16T06:48:38;7.28;;;3.50;;
8708;SDS011;4391;48.678;9.280;2024-02-16T06:51:05;6.97;;;3.35;;
8708;SDS011;4391;48.678;9.280;2024-02-16T06:53:32;6.37;;;2.90;;
8708;SDS011;4391;48.678;9.280;2024-02-16T06:56:00;8.18;;;3.17;;
8708;SDS011;4391;48.678;9.280;2024-02-16T06:58:28;6.15;;;3.00;;
8708;SDS011;4391;48.678;9.280;2024-02-16T07:00:55;6.05;;;3.15;;
8708;SDS011;4391;48.678;9.280;2024-02-16T07:03:28;7.40;;;3.72;;
8708;SDS011;4391;48.678;9.280;2024-02-16T07:05:55;9.07;;;3.10;;
8708;SDS011;4391;48.678;9.280;2024-02-16T07:08:21;8.85;;;3.65;;
8708;SDS011;4391;48.678;9.280;2024-02-16T07:10:49;8.38;;;3.72;;
8708;SDS011;4391;48.678;9.280;2024-02-16T07:13:18;9.23;;;3.85;;
8708;SDS011;4391;48.678;9.280;2024-02-16T07:15:45;9.77;;;3.45;;
8708;SDS011;4391;48.678;9.280;2024-02-16T07:18:12;11.83;;;4.30;;
8708;SDS011;4391;48.678;9.280;2024-02-16T07:20:39;8.70;;;3.75;;
8708;SDS011;4391;48.678;9.280;2024-02-16T07:23:07;8.77;;;4.03;;
8708;SDS011;4391;48.678;9.280;2024-02-16T07:25:35;9.10;;;3.83;;
8708;SDS011;4391;48.678;9.280;2024-02-16T07:28:02;7.95;;;4.07;;
8708;SDS011;4391;48.678;9.280;2024-02-16T07:30:31;10.67;;;4.13;;
8708;SDS011;4391;48.678;9.280;2024-02-16T07:32:59;10.93;;;4.32;;
8708;SDS011;4391;48.678;9.280;2024-02-16T07:35:25;13.88;;;4.50;;
8708;SDS011;4391;48.678;9.280;2024-02-16T07:37:52;8.57;;;4.15;;
8708;SDS011;4391;48.678;9.280;2024-02-16T07:40:19;10.30;;;4.30;;
8708;SDS011;4391;48.678;9.280;2024-02-16T07:42:46;9.90;;;4.30;;
8708;SDS011;4391;48.678;9.280;2024-02-16T07:45:13;10.98;;;4.32;;
8708;SDS011;4391;48.678;9.280;2024-02-16T07:47:41;8.18;;;4.00;;
8708;SDS011;4391;48.678;9.280;2024-02-16T07:50:08;11.23;;;4.10;;
8708;SDS011;4391;48.678;9.280;2024-02-16T07:52:37;7.80;;;3.67;;
8708;SDS011;4391;48.678;9.280;2024-02-16T07:55:05;9.10;;;3.90;;
8708;SDS011;4391;48.678;9.280;2024-02-16T07:57:32;7.20;;;3.72;;
8708;SDS011;4391;48.678;9.280;2024-02-16T07:59:59;9.13;;;3.67;;
8708;SDS011;4391;48.678;9.280;2024-02-16T08:02:26;13.77;;;3.63;;
8708;SDS011;4391;48.678;9.280;2024-02-16T08:04:54;9.68;;;4.20;;
8708;SDS011;4391;48.678;9.280;2024-02-16T08:07:21;10.97;;;4.70;;
8708;SDS011;4391;48.678;9.280;2024-02-16T08:09:48;14.75;;;4.72;;
8708;SDS011;4391;48.678;9.280;2024-02-16T08:12:15;8.43;;;4.38;;
8708;SDS011;4391;48.678;9.280;2024-02-16T08:14:42;9.32;;;4.43;;
8708;SDS011;4391;48.678;9.280;2024-02-16T08:17:10;8.38;;;4.40;;
8708;SDS011;4391;48.678;9.280;2024-02-16T08:19:37;9.40;;;4.00;;
8708;SDS011;4391;48.678;9.280;2024-02-16T08:22:07;10.65;;;4.00;;
8708;SDS011;4391;48.678;9.280;2024-02-16T08:24:34;7.70;;;3.60;;
8708;SDS011;4391;48.678;9.280;2024-02-16T08:27:01;9.07;;;4.10;;
8708;SDS011;4391;48.678;9.280;2024-02-16T08:29:29;12.20;;;3.78;;
8708;SDS011;4391;48.678;9.280;2024-02-16T08:31:56;13.37;;;4.87;;
8708;SDS011;4391;48.678;9.280;2024-02-16T08:34:23;8.85;;;4.30;;
8708;SDS011;4391;48.678;9.280;2024-02-16T08:36:51;10.65;;;5.18;;
8708;SDS011;4391;48.678;9.280;2024-02-16T08:39:19;8.98;;;4.13;;
8708;SDS011;4391;48.678;9.280;2024-02-16T08:41:50;8.82;;;3.90;;
8708;SDS011;4391;48.678;9.280;2024-02-16T08:44:17;7.43;;;3.20;;
8708;SDS011;4391;48.678;9.280;2024-02-16T08:46:44;7.78;;;3.58;;
8708;SDS011;4391;48.678;9.280;2024-02-16T08:49:13;6.80;;;2.55;;
8708;SDS011;4391;48.678;9.280;2024-02-16T08:51:41;3.78;;;1.70;;
8708;SDS011;4391;48.678;9.280;2024-02-16T08:54:08;3.55;;;1.50;;
8708;SDS011;4391;48.678;9.280;2024-02-16T08:56:36;6.67;;;1.93;;
8708;SDS011;4391;48.678;9.280;2024-02-16T08:59:04;6.75;;;2.10;;
8708;SDS011;4391;48.678;9.280;2024-02-16T09:01:31;9.85;;;1.63;;
8708;SDS011;4391;48.678;9.280;2024-02-16T09:03:58;7.45;;;2.45;;
8708;SDS011;4391;48.678;9.280;2024-02-16T09:06:25;4.70;;;1.88;;
8708;SDS011;4391;48.678;9.280;2024-02-16T09:08:53;4.40;;;1.63;;
8708;SDS011;4391;48.678;9.280;2024-02-16T09:11:20;4.88;;;1.85;;
8708;SDS011;4391;48.678;9.280;2024-02-16T09:13:48;4.90;;;2.20;;
8708;SDS011;4391;48.678;9.280;2024-02-16T09:16:15;6.05;;;2.30;;
8708;SDS011;4391;48.678;9.280;2024-02-16T09:18:42;5.80;;;2.00;;
8708;SDS011;4391;48.678;9.280;2024-02-16T09:21:09;6.53;;;2.00;;
8708;SDS011;4391;48.678;9.280;2024-02-16T09:23:36;4.85;;;2.17;;
8708;SDS011;4391;48.678;9.280;2024-02-16T09:26:03;5.40;;;2.15;;
8708;SDS011;4391;48.678;9.280;2024-02-16T09:28:30;5.03;;;2.38;;
8708;SDS011;4391;48.678;9.280;2024-02-16T09:30:59;4.95;;;2.03;;
8708;SDS011;4391;48.678;9.280;2024-02-16T09:33:26;7.93;;;2.30;;
8708;SDS011;4391;48.678;9.280;2024-02-16T09:35:53;4.82;;;2.20;;
8708;SDS011;4391;48.678;9.280;2024-02-16T09:38:20;5.00;;;2.08;;
8708;SDS011;4391;48.678;9.280;2024-02-16T09:40:47;7.38;;;2.58;;
8708;SDS011;4391;48.678;9.280;2024-02-16T09:43:23;7.38;;;2.83;;
8708;SDS011;4391;48.678;9.280;2024-02-16T09:45:52;5.63;;;2.10;;
8708;SDS011;4391;48.678;9.280;2024-02-16T09:48:25;4.40;;;1.50;;
8708;SDS011;4391;48.678;9.280;2024-02-16T09:50:53;5.82;;;1.45;;
8708;SDS011;4391;48.678;9.280;2024-02-16T09:53:20;5.85;;;1.65;;
8708;SDS011;4391;48.678;9.280;2024-02-16T09:55:50;4.55;;;1.80;;
8708;SDS011;4391;48.678;9.280;2024-02-16T09:58:17;5.00;;;1.60;;
8708;SDS011;4391;48.678;9.280;2024-02-16T10:00:48;7.07;;;1.70;;
8708;SDS011;4391;48.678;9.280;2024-02-16T10:03:23;5.05;;;1.73;;
8708;SDS011;4391;48.678;9.280;2024-02-16T10:05:51;4.65;;;1.35;;
8708;SDS011;4391;48.678;9.280;2024-02-16T10:08:18;3.75;;;1.40;;
8708;SDS011;4391;48.678;9.280;2024-02-16T10:10:45;3.87;;;1.60;;
8708;SDS011;4391;48.678;9.280;2024-02-16T10:13:15;4.55;;;1.63;;
8708;SDS011;4391;48.678;9.280;2024-02-16T10:15:42;4.43;;;1.60;;
8708;SDS011;4391;48.678;9.280;2024-02-16T10:18:09;4.80;;;1.83;;
8708;SDS011;4391;48.678;9.280;2024-02-16T10:20:38;4.82;;;1.60;;
8708;SDS011;4391;48.678;9.280;2024-02-16T10:23:06;5.40;;;1.63;;
8708;SDS011;4391;48.678;9.280;2024-02-16T10:25:34;5.00;;;1.63;;
8708;SDS011;4391;48.678;9.280;2024-02-16T10:28:03;3.80;;;1.83;;
8708;SDS011;4391;48.678;9.280;2024-02-16T10:30:34;7.40;;;1.83;;
8708;SDS011;4391;48.678;9.280;2024-02-16T10:33:02;4.22;;;1.20;;
8708;SDS011;4391;48.678;9.280;2024-02-16T10:35:30;3.50;;;1.00;;
8708;SDS011;4391;48.678;9.280;2024-02-16T10:38:00;4.75;;;1.23;;
8708;SDS011;4391;48.678;9.280;2024-02-16T10:40:30;6.22;;;1.55;;
8708;SDS011;4391;48.678;9.280;2024-02-16T10:43:00;2.80;;;0.90;;
8708;SDS011;4391;48.678;9.280;2024-02-16T10:45:30;3.47;;;1.27;;
8708;SDS011;4391;48.678;9.280;2024-02-16T10:47:58;5.37;;;1.20;;
8708;SDS011;4391;48.678;9.280;2024-02-16T10:50:25;6.03;;;1.38;;
8708;SDS011;4391;48.678;9.280;2024-02-16T10:52:52;2.67;;;1.00;;
8708;SDS011;4391;48.678;9.280;2024-02-16T10:55:23;4.25;;;1.27;;
8708;SDS011;4391;48.678;9.280;2024-02-16T10:57:50;3.90;;;1.35;;
8708;SDS011;4391;48.678;9.280;2024-02-16T11:00:20;4.23;;;1.20;;
8708;SDS011;4391;48.678;9.280;2024-02-16T11:02:50;4.70;;;1.33;;
8708;SDS011;4391;48.678;9.280;2024-02-16T11:05:20;4.75;;;1.20;;
8708;SDS011;4391;48.678;9.280;2024-02-16T11:08:01;5.20;;;1.55;;
8708;SDS011;4391;48.678;9.280;2024-02-16T11:10:31;4.38;;;1.40;;
8708;SDS011;4391;48.678;9.280;2024-02-16T11:13:01;4.50;;;1.40;;
8708;SDS011;4391;48.678;9.280;2024-02-16T11:15:30;2.70;;;1.25;;
8708;SDS011;4391;48.678;9.280;2024-02-16T11:17:58;4.43;;;1.30;;
8708;SDS011;4391;48.678;9.280;2024-02-16T11:20:26;4.78;;;1.45;;
8708;SDS011;4391;48.678;9.280;2024-02-16T11:22:53;4.68;;;1.48;;
8708;SDS011;4391;48.678;9.280;2024-02-16T11:25:32;3.67;;;1.47;;
8708;SDS011;4391;48.678;9.280;2024-02-16T11:27:59;3.95;;;1.45;;
8708;SDS011;4391;48.678;9.280;2024-02-16T11:30:27;5.60;;;1.60;;
8708;SDS011;4391;48.678;9.280;2024-02-16T11:32:54;4.20;;;1.35;;
8708;SDS011;4391;48.678;9.280;2024-02-16T11:35:21;8.90;;;1.80;;
8708;SDS011;4391;48.678;9.280;2024-02-16T11:37:48;4.53;;;1.50;;
8708;SDS011;4391;48.678;9.280;2024-02-16T11:40:16;4.55;;;1.80;;
8708;SDS011;4391;48.678;9.280;2024-02-16T11:42:45;3.28;;;1.27;;
8708;SDS011;4391;48.678;9.280;2024-02-16T11:45:12;4.07;;;1.23;;
8708;SDS011;4391;48.678;9.280;2024-02-16T11:47:40;4.05;;;1.15;;
8708;SDS011;4391;48.678;9.280;2024-02-16T11:50:08;5.07;;;1.40;;
8708;SDS011;4391;48.678;9.280;2024-02-16T11:52:36;3.67;;;1.20;;
8708;SDS011;4391;48.678;9.280;2024-02-16T11:55:04;5.03;;;1.52;;
8708;SDS011;4391;48.678;9.280;2024-02-16T11:57:34;4.35;;;1.60;;
8708;SDS011;4391;48.678;9.280;2024-02-16T12:00:03;3.47;;;1.40;;
8708;SDS011;4391;48.678;9.280;2024-02-16T12:02:35;3.90;;;1.70;;
8708;SDS011;4391;48.678;9.280;2024-02-16T12:05:03;6.43;;;1.88;;
8708;SDS011;4391;48.678;9.280;2024-02-16T12:07:30;4.85;;;1.30;;
8708;SDS011;4391;48.678;9.280;2024-02-16T12:09:59;3.40;;;1.30;;
8708;SDS011;4391;48.678;9.280;2024-02-16T12:12:27;5.07;;;1.58;;
8708;SDS011;4391;48.678;9.280;2024-02-16T12:14:54;4.63;;;1.50;;
8708;SDS011;4391;48.678;9.280;2024-02-16T12:17:22;6.43;;;1.45;;
8708;SDS011;4391;48.678;9.280;2024-02-16T12:19:49;4.13;;;1.70;;
8708;SDS011;4391;48.678;9.280;2024-02-16T12:22:17;4.82;;;1.80;;
8708;SDS011;4391;48.678;9.280;2024-02-16T12:24:44;4.80;;;1.40;;
8708;SDS011;4391;48.678;9.280;2024-02-16T12:27:11;5.47;;;1.40;;
8708;SDS011;4391;48.678;9.280;2024-02-16T12:29:38;2.70;;;1.10;;
8708;SDS011;4391;48.678;9.280;2024-02-16T12:32:06;6.10;;;1.52;;
8708;SDS011;4391;48.678;9.280;2024-02-16T12:34:36;4.95;;;1.48;;
8708;SDS011;4391;48.678;9.280;2024-02-16T12:37:04;4.63;;;1.42;;
8708;SDS011;4391;48.678;9.280;2024-02-16T12:39:32;3.37;;;1.10;;
8708;SDS011;4391;48.678;9.280;2024-02-16T12:41:59;5.68;;;1.30;;
8708;SDS011;4391;48.678;9.280;2024-02-16T12:44:26;4.75;;;1.35;;
8708;SDS011;4391;48.678;9.280;2024-02-16T12:46:53;4.60;;;1.50;;
8708;SDS011;4391;48.678;9.280;2024-02-16T12:49:20;4.13;;;1.45;;
8708;SDS011;4391;48.678;9.280;2024-02-16T12:51:49;5.83;;;1.40;;
8708;SDS011;4391;48.678;9.280;2024-02-16T12:54:16;3.70;;;1.20;;
8708;SDS011;4391;48.678;9.280;2024-02-16T12:56:44;3.25;;;1.38;;
8708;SDS011;4391;48.678;9.280;2024-02-16T12:59:11;4.30;;;1.25;;
8708;SDS011;4391;48.678;9.280;2024-02-16T13:01:38;6.10;;;1.40;;
8708;SDS011;4391;48.678;9.280;2024-02-16T13:04:05;4.30;;;1.23;;
8708;SDS011;4391;48.678;9.280;2024-02-16T13:06:32;5.13;;;1.60;;
8708;SDS011;4391;48.678;9.280;2024-02-16T13:09:00;7.25;;;1.80;;
8708;SDS011;4391;48.678;9.280;2024-02-16T13:11:29;7.00;;;1.98;;
8708;SDS011;4391;48.678;9.280;2024-02-16T13:13:56;4.90;;;1.98;;
8708;SDS011;4391;48.678;9.280;2024-02-16T13:16:23;4.73;;;1.70;;
8708;SDS011;4391;48.678;9.280;2024-02-16T13:18:49;8.15;;;2.15;;
8708;SDS011;4391;48.678;9.280;2024-02-16T13:21:16;5.97;;;1.55;;
8708;SDS011;4391;48.678;9.280;2024-02-16T13:23:43;4.25;;;1.75;;
8708;SDS011;4391;48.678;9.280;2024-02-16T13:26:11;6.63;;;1.70;;
8708;SDS011;4391;48.678;9.280;2024-02-16T13:28:38;4.60;;;1.57;;
8708;SDS011;4391;48.678;9.280;2024-02-16T13:31:05;4.28;;;1.70;;
8708;SDS011;4391;48.678;9.280;2024-02-16T13:33:32;5.55;;;2.03;;
8708;SDS011;4391;48.678;9.280;2024-02-16T13:35:59;6.47;;;1.88;;
8708;SDS011;4391;48.678;9.280;2024-02-16T13:38:25;5.95;;;1.98;;
8708;SDS011;4391;48.678;9.280;2024-02-16T13:40:53;5.47;;;1.70;;
8708;SDS011;4391;48.678;9.280;2024-02-16T13:43:21;6.63;;;1.92;;
8708;SDS011;4391;48.678;9.280;2024-02-16T13:45:48;8.98;;;1.70;;
8708;SDS011;4391;48.678;9.280;2024-02-16T13:48:16;4.80;;;1.40;;
8708;SDS011;4391;48.678;9.280;2024-02-16T13:50:44;8.00;;;1.67;;
8708;SDS011;4391;48.678;9.280;2024-02-16T13:53:12;6.20;;;1.60;;
8708;SDS011;4391;48.678;9.280;2024-02-16T13:55:39;4.35;;;1.73;;
8708;SDS011;4391;48.678;9.280;2024-02-16T13:58:07;5.50;;;1.90;;
8708;SDS011;4391;48.678;9.280;2024-02-16T14:00:35;4.78;;;1.35;;
8708;SDS011;4391;48.678;9.280;2024-02-16T14:03:03;5.00;;;1.63;;
8708;SDS011;4391;48.678;9.280;2024-02-16T14:05:31;5.03;;;1.87;;
8708;SDS011;4391;48.678;9.280;2024-02-16T14:07:58;7.75;;;1.70;;
8708;SDS011;4391;48.678;9.280;2024-02-16T14:10:25;6.55;;;1.70;;
8708;SDS011;4391;48.678;9.280;2024-02-16T14:12:52;4.25;;;1.55;;
8708;SDS011;4391;48.678;9.280;2024-02-16T14:15:18;4.10;;;1.40;;
8708;SDS011;4391;48.678;9.280;2024-02-16T14:17:47;5.87;;;1.53;;
8708;SDS011;4391;48.678;9.280;2024-02-16T14:20:13;8.57;;;1.70;;
8708;SDS011;4391;48.678;9.280;2024-02-16T14:22:40;4.97;;;1.42;;
8708;SDS011;4391;48.678;9.280;2024-02-16T14:25:07;5.53;;;1.52;;
8708;SDS011;4391;48.678;9.280;2024-02-16T14:27:38;3.85;;;1.40;;
8708;SDS011;4391;48.678;9.280;2024-02-16T14:30:06;7.90;;;1.30;;
8708;SDS011;4391;48.678;9.280;2024-02-16T14:32:34;6.47;;;1.60;;
8708;SDS011;4391;48.678;9.280;2024-02-16T14:35:02;8.88;;;1.70;;
8708;SDS011;4391;48.678;9.280;2024-02-16T14:37:31;7.15;;;2.00;;
8708;SDS011;4391;48.678;9.280;2024-02-16T14:39:58;7.93;;;2.58;;
8708;SDS011;4391;48.678;9.280;2024-02-16T14:42:25;7.27;;;2.00;;
8708;SDS011;4391;48.678;9.280;2024-02-16T14:44:53;8.75;;;2.20;;
8708;SDS011;4391;48.678;9.280;2024-02-16T14:47:20;7.90;;;2.15;;
8708;SDS011;4391;48.678;9.280;2024-02-16T14:49:48;10.43;;;2.10;;
8708;SDS011;4391;48.678;9.280;2024-02-16T14:52:16;6.95;;;2.22;;
8708;SDS011;4391;48.678;9.280;2024-02-16T14:54:43;10.83;;;2.60;;
8708;SDS011;4391;48.678;9.280;2024-02-16T14:57:10;8.38;;;2.70;;
8708;SDS011;4391;48.678;9.280;2024-02-16T14:59:37;9.05;;;2.95;;
8708;SDS011;4391;48.678;9.280;2024-02-16T15:02:04;10.43;;;2.88;;
8708;SDS011;4391;48.678;9.280;2024-02-16T15:04:32;5.32;;;2.25;;
8708;SDS011;4391;48.678;9.280;2024-02-16T15:06:59;8.83;;;2.60;;
8708;SDS011;4391;48.678;9.280;2024-02-16T15:09:27;6.85;;;2.30;;
8708;SDS011;4391;48.678;9.280;2024-02-16T15:11:54;8.05;;;2.63;;
8708;SDS011;4391;48.678;9.280;2024-02-16T15:14:20;7.72;;;2.50;;
8708;SDS011;4391;48.678;9.280;2024-02-16T15:16:47;11.45;;;2.90;;
8708;SDS011;4391;48.678;9.280;2024-02-16T15:19:14;13.07;;;3.00;;